createdAt,value
2023-03-26T00:01:39.597Z,19.20
2023-03-26T00:04:07.716Z,20.10
2023-03-26T00:06:39.251Z,30.55
2023-03-26T00:09:10.902Z,30.67
2023-03-26T00:11:37.766Z,23.30
2023-03-26T00:14:05.479Z,24.38
2023-03-26T00:16:32.618Z,28.20
2023-03-26T00:19:00.075Z,23.63
2023-03-26T00:21:29.040Z,31.17
2023-03-26T00:24:08.442Z,28.65
2023-03-26T00:26:37.486Z,26.00
2023-03-26T00:29:04.610Z,23.52
2023-03-26T00:31:31.444Z,19.73
2023-03-26T00:33:58.150Z,29.63
2023-03-26T00:36:26.592Z,24.23
2023-03-26T00:38:54.202Z,22.95
2023-03-26T00:41:25.557Z,28.55
2023-03-26T00:43:56.414Z,26.90
2023-03-26T00:46:24.869Z,26.75
2023-03-26T00:48:51.644Z,24.30
2023-03-26T00:51:20.589Z,21.95
2023-03-26T00:53:49.546Z,31.80
2023-03-26T00:56:16.873Z,28.60
2023-03-26T00:58:43.833Z,21.67
2023-03-26T01:01:18.912Z,20.17
2023-03-26T01:03:53.646Z,20.40
2023-03-26T01:06:35.732Z,18.83
2023-03-26T01:09:10.685Z,18.48
2023-03-26T01:11:37.702Z,23.70
2023-03-26T01:14:16.019Z,23.75
2023-03-26T01:16:54.804Z,35.45
2023-03-26T01:19:45.687Z,28.17
2023-03-26T01:22:19.145Z,25.25
2023-03-26T01:24:52.226Z,28.05
2023-03-26T01:27:44.450Z,19.80
2023-03-26T01:30:25.622Z,25.30
2023-03-26T01:33:17.928Z,32.00
2023-03-26T01:35:55.245Z,30.60
2023-03-26T01:38:35.498Z,36.42
2023-03-26T01:41:11.618Z,31.58
2023-03-26T01:44:00.552Z,27.55
2023-03-26T01:46:27.710Z,35.47
2023-03-26T01:48:55.428Z,33.25
2023-03-26T01:51:28.000Z,28.35
2023-03-26T01:56:38.921Z,23.88
2023-03-26T01:59:18.502Z,23.73
2023-03-26T02:02:06.817Z,34.28
2023-03-26T02:04:59.698Z,22.63
2023-03-26T02:07:51.158Z,28.10
2023-03-26T02:10:29.422Z,33.70
2023-03-26T02:12:58.307Z,23.50
2023-03-26T02:15:25.538Z,33.80
2023-03-26T02:17:53.215Z,26.05
2023-03-26T02:20:21.229Z,21.30
2023-03-26T02:22:48.458Z,25.45
2023-03-26T02:25:19.809Z,30.17
2023-03-26T02:27:49.439Z,22.92
2023-03-26T02:30:19.842Z,29.33
2023-03-26T02:32:52.310Z,30.35
2023-03-26T02:35:21.992Z,35.30
2023-03-26T02:37:52.804Z,27.08
2023-03-26T02:40:22.375Z,22.58
2023-03-26T02:42:50.364Z,24.35
2023-03-26T02:45:17.129Z,34.80
2023-03-26T02:48:04.327Z,31.00
2023-03-26T02:50:54.193Z,23.35
2023-03-26T02:53:39.447Z,22.38
2023-03-26T02:56:29.931Z,25.92
2023-03-26T02:59:25.839Z,27.25
2023-03-26T03:02:13.401Z,24.80
2023-03-26T03:04:41.701Z,26.17
2023-03-26T03:07:08.492Z,26.30
2023-03-26T03:09:35.220Z,26.58
2023-03-26T03:12:30.924Z,22.80
2023-03-26T03:15:01.294Z,24.25
2023-03-26T03:17:28.180Z,17.20
2023-03-26T03:19:54.803Z,28.13
2023-03-26T03:22:21.565Z,24.13
2023-03-26T03:24:51.862Z,18.63
2023-03-26T03:27:23.789Z,23.30
2023-03-26T03:29:58.904Z,29.25
2023-03-26T03:32:43.890Z,29.63
2023-03-26T03:35:11.446Z,14.93
2023-03-26T03:37:39.750Z,25.48
2023-03-26T03:40:10.779Z,23.10
2023-03-26T03:42:38.515Z,24.48
2023-03-26T03:45:07.094Z,18.67
2023-03-26T03:48:12.005Z,30.42
2023-03-26T03:50:42.759Z,30.33
2023-03-26T03:53:30.351Z,23.70
2023-03-26T03:56:01.975Z,22.38
2023-03-26T03:58:54.626Z,26.48
2023-03-26T04:01:30.675Z,21.23
2023-03-26T04:04:06.509Z,22.38
2023-03-26T04:06:59.078Z,21.60
2023-03-26T04:12:03.855Z,24.88
2023-03-26T04:14:40.384Z,27.83
2023-03-26T04:17:15.826Z,21.98
2023-03-26T04:19:44.420Z,23.63
2023-03-26T04:22:13.704Z,20.65
2023-03-26T04:24:54.459Z,12.88
2023-03-26T04:27:32.554Z,23.05
2023-03-26T04:30:23.182Z,20.83
2023-03-26T04:32:58.408Z,25.52
2023-03-26T04:35:34.437Z,20.10
2023-03-26T04:38:06.434Z,15.85
2023-03-26T04:40:39.076Z,22.95
2023-03-26T04:43:17.841Z,27.05
2023-03-26T04:45:54.690Z,22.13
2023-03-26T04:48:24.681Z,20.20
2023-03-26T04:50:51.397Z,27.75
2023-03-26T04:53:21.343Z,30.27
2023-03-26T04:56:41.062Z,24.35
2023-03-26T04:59:43.066Z,27.45
2023-03-26T05:02:13.107Z,27.02
2023-03-26T05:04:57.355Z,25.42
2023-03-26T05:07:27.996Z,21.40
2023-03-26T05:09:57.484Z,21.85
2023-03-26T05:12:53.558Z,18.52
2023-03-26T05:15:25.077Z,19.52
2023-03-26T05:17:58.016Z,14.88
2023-03-26T05:20:43.798Z,13.18
2023-03-26T05:23:10.861Z,22.40
2023-03-26T05:25:41.173Z,22.25
2023-03-26T05:28:15.422Z,22.10
2023-03-26T05:30:53.236Z,19.02
2023-03-26T05:33:22.019Z,22.70
2023-03-26T05:36:01.482Z,19.65
2023-03-26T05:38:30.985Z,19.45
2023-03-26T05:41:03.642Z,21.77
2023-03-26T05:43:31.405Z,18.48
2023-03-26T05:46:09.580Z,16.73
2023-03-26T05:48:38.001Z,18.95
2023-03-26T05:51:05.366Z,17.20
2023-03-26T05:53:32.845Z,17.88
2023-03-26T05:56:18.121Z,24.27
2023-03-26T05:59:03.103Z,21.40
2023-03-26T06:01:50.927Z,26.70
2023-03-26T06:04:23.511Z,17.40
2023-03-26T06:07:13.229Z,15.25
2023-03-26T06:09:45.024Z,21.17
2023-03-26T06:12:12.070Z,16.65
2023-03-26T06:14:40.511Z,15.80
2023-03-26T06:17:18.473Z,18.88
2023-03-26T06:20:09.249Z,14.82
2023-03-26T06:22:42.564Z,20.45
2023-03-26T06:25:19.298Z,21.92
2023-03-26T06:28:04.757Z,17.80
2023-03-26T06:31:09.516Z,17.13
2023-03-26T06:33:40.359Z,17.75
2023-03-26T06:36:08.252Z,21.73
2023-03-26T06:38:35.402Z,18.23
2023-03-26T06:41:06.782Z,21.30
2023-03-26T06:43:49.481Z,17.42
2023-03-26T06:46:34.872Z,22.35
2023-03-26T06:49:20.885Z,19.08
2023-03-26T06:52:12.894Z,17.55
2023-03-26T06:54:47.208Z,21.92
2023-03-26T06:57:33.545Z,16.33
2023-03-26T07:00:19.270Z,15.05
2023-03-26T07:03:05.574Z,17.10
2023-03-26T07:05:51.251Z,17.05
2023-03-26T07:08:49.610Z,17.45
2023-03-26T07:11:39.403Z,14.95
2023-03-26T07:14:27.914Z,14.55
2023-03-26T07:17:20.358Z,14.05
2023-03-26T07:19:58.851Z,15.55
2023-03-26T07:22:26.885Z,12.00
2023-03-26T07:27:49.963Z,19.20
2023-03-26T07:31:00.871Z,15.98
2023-03-26T07:33:48.876Z,13.95
2023-03-26T07:36:52.172Z,14.18
2023-03-26T07:39:58.976Z,17.08
2023-03-26T07:43:05.958Z,21.23
2023-03-26T07:45:51.550Z,13.05
2023-03-26T07:48:43.918Z,18.02
2023-03-26T07:51:37.128Z,17.73
2023-03-26T07:54:11.794Z,18.17
2023-03-26T07:57:19.753Z,16.60
2023-03-26T08:00:09.120Z,17.58
2023-03-26T08:02:54.913Z,15.38
2023-03-26T08:06:38.562Z,12.20
2023-03-26T08:09:31.840Z,17.45
2023-03-26T08:12:38.953Z,17.85
2023-03-26T08:15:17.234Z,15.30
2023-03-26T08:18:13.704Z,10.88
2023-03-26T08:20:54.361Z,14.50
2023-03-26T08:24:00.060Z,16.17
2023-03-26T08:26:41.957Z,20.60
2023-03-26T08:29:30.391Z,16.17
2023-03-26T08:31:57.578Z,14.40
2023-03-26T08:34:24.269Z,11.48
2023-03-26T08:36:50.998Z,13.02
2023-03-26T08:39:22.268Z,16.17
2023-03-26T08:42:13.795Z,11.23
2023-03-26T08:45:23.170Z,15.80
2023-03-26T08:48:09.109Z,9.35
2023-03-26T08:51:01.539Z,17.08
2023-03-26T08:54:03.328Z,13.70
2023-03-26T08:56:52.581Z,11.40
2023-03-26T08:59:54.215Z,11.00
2023-03-26T09:02:56.767Z,14.55
2023-03-26T09:05:42.193Z,13.30
2023-03-26T09:08:35.335Z,7.50
2023-03-26T09:11:14.071Z,10.02
2023-03-26T09:14:02.672Z,7.38
2023-03-26T09:16:53.393Z,8.55
2023-03-26T09:19:38.573Z,10.05
2023-03-26T09:22:28.297Z,11.18
2023-03-26T09:25:10.518Z,9.50
2023-03-26T09:27:48.836Z,8.05
2023-03-26T09:31:06.923Z,7.85
2023-03-26T09:33:59.281Z,10.23
2023-03-26T09:36:33.942Z,8.45
2023-03-26T09:39:39.150Z,11.80
2023-03-26T09:42:08.831Z,11.10
2023-03-26T09:44:47.670Z,10.60
2023-03-26T09:47:34.817Z,13.45
2023-03-26T09:50:20.403Z,8.15
2023-03-26T09:53:00.215Z,8.45
2023-03-26T09:55:43.633Z,5.70
2023-03-26T09:58:28.528Z,9.45
2023-03-26T10:01:18.204Z,8.15
2023-03-26T10:03:58.321Z,5.78
2023-03-26T10:06:30.755Z,8.77
2023-03-26T10:09:22.175Z,11.20
2023-03-26T10:12:05.592Z,9.40
2023-03-26T10:14:46.337Z,5.47
2023-03-26T10:17:12.915Z,4.78
2023-03-26T10:20:30.527Z,5.90
2023-03-26T10:23:18.909Z,7.90
2023-03-26T10:26:03.486Z,10.02
2023-03-26T10:28:56.635Z,6.85
2023-03-26T10:31:51.542Z,6.50
2023-03-26T10:34:36.887Z,8.18
2023-03-26T10:37:24.581Z,12.50
2023-03-26T10:40:10.194Z,6.32
2023-03-26T10:42:50.527Z,8.30
2023-03-26T10:45:36.118Z,6.57
2023-03-26T10:48:24.487Z,7.55
2023-03-26T10:51:20.033Z,4.50
2023-03-26T10:53:53.621Z,6.82
2023-03-26T10:56:29.633Z,6.20
2023-03-26T10:58:56.986Z,6.18
2023-03-26T11:01:32.223Z,5.90
2023-03-26T11:04:11.953Z,7.22
2023-03-26T11:06:56.850Z,5.45
2023-03-26T11:09:31.125Z,6.95
2023-03-26T11:12:03.606Z,6.03
2023-03-26T11:15:02.271Z,4.57
2023-03-26T11:17:42.876Z,6.88
2023-03-26T11:20:20.389Z,5.90
2023-03-26T11:23:23.341Z,6.38
2023-03-26T11:26:04.945Z,2.28
2023-03-26T11:29:31.685Z,5.10
2023-03-26T11:32:10.488Z,8.40
2023-03-26T11:34:45.241Z,7.55
2023-03-26T11:37:21.608Z,5.63
2023-03-26T11:39:55.108Z,6.60
2023-03-26T11:42:24.453Z,7.40
2023-03-26T11:45:02.592Z,7.40
2023-03-26T11:47:36.826Z,5.90
2023-03-26T11:50:08.283Z,7.75
2023-03-26T11:52:35.997Z,5.30
2023-03-26T11:55:03.276Z,4.72
2023-03-26T11:57:34.681Z,7.07
2023-03-26T12:00:17.610Z,3.90
2023-03-26T12:02:46.379Z,7.30
2023-03-26T12:05:22.566Z,4.57
2023-03-26T12:08:00.431Z,6.63
2023-03-26T12:10:51.211Z,3.20
2023-03-26T12:13:21.174Z,3.42
2023-03-26T12:15:48.001Z,3.13
2023-03-26T12:18:24.825Z,4.72
2023-03-26T12:21:13.034Z,6.22
2023-03-26T12:23:50.922Z,6.20
2023-03-26T12:26:20.713Z,4.60
2023-03-26T12:28:49.901Z,5.72
2023-03-26T12:31:19.133Z,3.92
2023-03-26T12:34:03.971Z,4.57
2023-03-26T12:36:33.325Z,3.45
2023-03-26T12:40:08.863Z,5.13
2023-03-26T12:44:44.367Z,5.30
2023-03-26T12:45:15.078Z,5.90
2023-03-26T12:47:58.827Z,5.35
2023-03-26T12:50:37.930Z,6.85
2023-03-26T12:53:40.875Z,5.93
2023-03-26T12:56:38.543Z,5.07
2023-03-26T12:59:15.597Z,8.52
2023-03-26T13:02:02.097Z,6.88
2023-03-26T13:04:37.945Z,6.13
2023-03-26T13:07:35.941Z,8.65
2023-03-26T13:10:37.045Z,10.75
2023-03-26T13:13:11.265Z,10.02
2023-03-26T13:15:47.183Z,12.13
2023-03-26T13:18:23.247Z,13.27
2023-03-26T13:21:10.993Z,11.35
2023-03-26T13:24:01.819Z,12.77
2023-03-26T13:26:37.559Z,11.85
2023-03-26T13:29:29.222Z,10.85
2023-03-26T13:32:05.964Z,9.90
2023-03-26T13:34:48.064Z,10.73
2023-03-26T13:37:40.833Z,13.55
2023-03-26T13:40:10.273Z,15.23
2023-03-26T13:42:41.315Z,11.63
2023-03-26T13:45:31.222Z,13.48
2023-03-26T13:48:00.434Z,17.10
2023-03-26T13:50:30.868Z,16.25
2023-03-26T13:53:33.220Z,18.05
2023-03-26T13:56:00.504Z,14.32
2023-03-26T13:58:38.594Z,14.55
2023-03-26T14:01:09.804Z,16.38
2023-03-26T14:03:55.037Z,12.25
2023-03-26T14:06:35.785Z,18.25
2023-03-26T14:09:22.943Z,20.92
2023-03-26T14:11:56.628Z,20.63
2023-03-26T14:14:39.586Z,18.40
2023-03-26T14:17:21.810Z,15.50
2023-03-26T14:20:09.843Z,15.88
2023-03-26T14:23:27.514Z,13.90
2023-03-26T14:26:09.131Z,13.68
2023-03-26T14:28:53.798Z,17.60
2023-03-26T14:31:41.270Z,16.05
2023-03-26T14:34:24.261Z,11.82
2023-03-26T14:37:27.391Z,14.95
2023-03-26T14:40:16.626Z,16.65
2023-03-26T14:42:56.381Z,21.38
2023-03-26T14:45:31.323Z,18.00
2023-03-26T14:48:39.327Z,16.85
2023-03-26T14:51:36.945Z,11.95
2023-03-26T14:54:31.627Z,13.32
2023-03-26T14:57:07.773Z,14.90
2023-03-26T15:00:15.171Z,16.63
2023-03-26T15:03:09.851Z,15.52
2023-03-26T15:05:48.932Z,12.27
2023-03-26T15:08:48.587Z,14.52
2023-03-26T15:11:32.453Z,14.82
2023-03-26T15:14:33.034Z,7.63
2023-03-26T15:17:30.365Z,15.95
2023-03-26T15:20:32.529Z,17.30
2023-03-26T15:23:36.043Z,12.07
2023-03-26T15:26:14.766Z,13.00
2023-03-26T15:29:14.739Z,15.85
2023-03-26T15:31:48.529Z,10.85
2023-03-26T15:34:30.340Z,16.00
2023-03-26T15:37:02.760Z,9.35
2023-03-26T15:39:44.146Z,15.75
2023-03-26T15:43:04.240Z,15.75
2023-03-26T15:45:48.050Z,14.77
2023-03-26T15:48:46.642Z,10.15
2023-03-26T15:51:19.172Z,13.30
2023-03-26T15:54:00.465Z,9.98
2023-03-26T15:56:55.657Z,12.77
2023-03-26T15:59:37.183Z,13.27
2023-03-26T16:02:07.526Z,17.52
2023-03-26T16:04:50.409Z,18.33
2023-03-26T16:07:21.816Z,17.70
2023-03-26T16:10:00.748Z,12.65
2023-03-26T16:12:47.417Z,14.65
2023-03-26T16:15:27.413Z,12.23
2023-03-26T16:18:06.179Z,13.02
2023-03-26T16:20:50.750Z,12.82
2023-03-26T16:23:29.228Z,16.77
2023-03-26T16:26:11.107Z,9.93
2023-03-26T16:28:46.870Z,11.10
2023-03-26T16:31:35.096Z,16.15
2023-03-26T16:34:07.858Z,20.17
2023-03-26T16:36:36.810Z,15.95
2023-03-26T16:39:07.029Z,10.48
2023-03-26T16:41:39.645Z,11.77
2023-03-26T16:47:06.671Z,12.55
2023-03-26T16:50:09.035Z,12.20
2023-03-26T16:52:46.237Z,17.38
2023-03-26T16:55:21.619Z,13.68
2023-03-26T16:58:22.426Z,13.38
2023-03-26T17:00:54.968Z,16.67
2023-03-26T17:06:16.683Z,12.45
2023-03-26T17:09:15.302Z,16.15
2023-03-26T17:12:08.888Z,11.57
2023-03-26T17:14:57.935Z,10.82
2023-03-26T17:17:43.219Z,10.27
2023-03-26T17:20:18.865Z,11.32
2023-03-26T17:22:51.717Z,9.07
2023-03-26T17:26:00.440Z,11.95
2023-03-26T17:28:48.791Z,10.48
2023-03-26T17:32:09.080Z,9.68
2023-03-26T17:34:38.685Z,16.83
2023-03-26T17:37:30.279Z,10.10
2023-03-26T17:40:10.562Z,10.10
2023-03-26T17:42:37.597Z,12.57
2023-03-26T17:45:28.883Z,15.65
2023-03-26T17:48:21.633Z,7.00
2023-03-26T17:50:56.506Z,7.10
2023-03-26T17:53:34.033Z,12.35
2023-03-26T17:56:06.406Z,12.65
2023-03-26T17:58:47.907Z,16.15
2023-03-26T18:01:27.050Z,6.50
2023-03-26T18:04:02.804Z,11.35
2023-03-26T18:06:55.583Z,18.02
2023-03-26T18:09:58.208Z,11.27
2023-03-26T18:12:46.052Z,11.70
2023-03-26T18:15:24.593Z,8.48
2023-03-26T18:18:02.126Z,10.60
2023-03-26T18:20:29.313Z,7.35
2023-03-26T18:22:55.949Z,11.50
2023-03-26T18:25:28.478Z,13.18
2023-03-26T18:27:56.899Z,21.42
2023-03-26T18:30:26.008Z,26.27
2023-03-26T18:33:13.869Z,12.88
2023-03-26T18:35:43.572Z,13.77
2023-03-26T18:38:16.955Z,13.85
2023-03-26T18:40:45.637Z,9.57
2023-03-26T18:43:32.289Z,12.90
2023-03-26T18:46:02.193Z,12.23
2023-03-26T18:48:29.134Z,9.02
2023-03-26T18:51:04.825Z,10.00
2023-03-26T18:53:39.891Z,7.40
2023-03-26T18:56:40.863Z,10.20
2023-03-26T18:59:21.929Z,14.63
2023-03-26T19:01:49.747Z,15.43
2023-03-26T19:04:17.576Z,14.73
2023-03-26T19:06:46.106Z,11.00
2023-03-26T19:09:30.397Z,7.60
2023-03-26T19:12:29.272Z,12.23
2023-03-26T19:15:07.716Z,14.02
2023-03-26T19:17:40.717Z,7.30
2023-03-26T19:20:15.292Z,8.50
2023-03-26T19:22:44.575Z,6.38
2023-03-26T19:25:22.980Z,20.40
2023-03-26T19:27:51.692Z,11.80
2023-03-26T19:30:30.184Z,9.65
2023-03-26T19:33:12.226Z,12.27
2023-03-26T19:35:42.173Z,11.05
2023-03-26T19:38:27.082Z,11.40
2023-03-26T19:40:58.037Z,11.13
2023-03-26T19:43:25.701Z,9.05
2023-03-26T19:46:00.335Z,8.15
2023-03-26T19:48:45.897Z,17.95
2023-03-26T19:51:20.938Z,12.63
2023-03-26T19:53:54.121Z,10.20
2023-03-26T19:56:22.190Z,10.90
2023-03-26T19:58:50.164Z,11.00
2023-03-26T20:01:26.546Z,9.15
2023-03-26T20:04:01.669Z,8.30
2023-03-26T20:06:41.810Z,10.60
2023-03-26T20:09:11.213Z,7.88
2023-03-26T20:11:39.566Z,9.23
2023-03-26T20:14:26.654Z,12.43
2023-03-26T20:16:53.724Z,8.65
2023-03-26T20:19:20.666Z,10.93
2023-03-26T20:21:48.898Z,9.07
2023-03-26T20:24:18.164Z,9.98
2023-03-26T20:26:45.863Z,13.77
2023-03-26T20:29:13.074Z,12.77
2023-03-26T20:31:41.627Z,13.70
2023-03-26T20:34:21.936Z,18.48
2023-03-26T20:36:54.180Z,10.07
2023-03-26T20:39:22.393Z,12.75
2023-03-26T20:41:50.119Z,9.05
2023-03-26T20:44:20.028Z,14.80
2023-03-26T20:46:48.745Z,11.25
2023-03-26T20:49:15.875Z,7.22
2023-03-26T20:51:43.610Z,9.77
2023-03-26T20:54:17.576Z,7.75
2023-03-26T20:56:45.581Z,7.80
2023-03-26T20:59:17.693Z,9.07
2023-03-26T21:01:47.037Z,8.23
2023-03-26T21:04:16.006Z,10.27
2023-03-26T21:06:43.435Z,9.38
2023-03-26T21:09:17.490Z,8.73
2023-03-26T21:12:05.450Z,15.07
2023-03-26T21:14:39.106Z,8.68
2023-03-26T21:17:07.471Z,14.25
2023-03-26T21:19:34.313Z,14.35
2023-03-26T21:22:10.687Z,9.82
2023-03-26T21:25:05.342Z,8.88
2023-03-26T21:27:47.319Z,9.02
2023-03-26T21:30:16.239Z,14.40
2023-03-26T21:32:45.331Z,11.15
2023-03-26T21:35:14.938Z,18.30
2023-03-26T21:37:44.003Z,11.20
2023-03-26T21:40:14.326Z,12.68
2023-03-26T21:42:42.721Z,15.75
2023-03-26T21:45:10.199Z,7.32
2023-03-26T21:47:37.115Z,14.85
2023-03-26T21:50:05.256Z,6.53
2023-03-26T21:52:32.180Z,10.18
2023-03-26T21:55:05.281Z,10.52
2023-03-26T21:57:37.673Z,6.90
2023-03-26T22:00:15.169Z,11.90
2023-03-26T22:03:00.767Z,17.35
2023-03-26T22:05:47.950Z,15.20
2023-03-26T22:08:36.912Z,13.05
2023-03-26T22:11:03.584Z,8.93
2023-03-26T22:13:30.998Z,7.47
2023-03-26T22:15:57.915Z,10.65
2023-03-26T22:18:25.942Z,10.68
2023-03-26T22:20:53.133Z,8.57
2023-03-26T22:23:20.010Z,8.88
2023-03-26T22:25:46.837Z,13.07
2023-03-26T22:28:13.819Z,8.13
2023-03-26T22:30:40.448Z,6.38
2023-03-26T22:33:10.870Z,7.80
2023-03-26T22:35:39.036Z,8.52
2023-03-26T22:38:05.751Z,9.82
2023-03-26T22:40:32.380Z,8.13
2023-03-26T22:42:58.921Z,11.43
2023-03-26T22:45:26.146Z,12.93
2023-03-26T22:47:52.781Z,7.85
2023-03-26T22:50:31.163Z,5.38
2023-03-26T22:52:57.922Z,5.97
2023-03-26T22:55:28.983Z,10.40
2023-03-26T22:57:56.952Z,11.02
2023-03-26T23:00:23.883Z,10.20
2023-03-26T23:02:50.505Z,3.95
2023-03-26T23:05:20.332Z,8.63
2023-03-26T23:07:47.328Z,19.75
2023-03-26T23:10:14.264Z,13.68
2023-03-26T23:12:41.498Z,14.45
2023-03-26T23:15:09.608Z,10.02
2023-03-26T23:17:37.944Z,7.00
2023-03-26T23:20:12.371Z,8.23
2023-03-26T23:22:39.064Z,8.82
2023-03-26T23:25:06.813Z,11.15
2023-03-26T23:27:33.941Z,8.25
2023-03-26T23:30:01.343Z,9.07
2023-03-26T23:32:28.085Z,10.25
2023-03-26T23:34:55.818Z,7.85
2023-03-26T23:37:23.478Z,7.55
2023-03-26T23:39:51.095Z,10.00
2023-03-26T23:42:29.182Z,7.47
2023-03-26T23:44:57.327Z,15.60
2023-03-26T23:47:24.163Z,15.93
2023-03-26T23:49:50.928Z,16.20
2023-03-26T23:52:17.886Z,12.15
2023-03-26T23:54:45.015Z,10.27
2023-03-26T23:57:11.806Z,9.80
2023-03-26T23:59:38.648Z,11.50
